Indianola, IL (61850)

6:07 AM CST on December 07, 2016 (GMT -0600)
Vermilion County Emergency Management Agency | | Change Station

Elev 655 ft 40.08 °N, 87.63 °W | Updated 13 seconds ago

Clear
Clear
29.7 °F
Feels Like 24 °F
N
5.8
Wind Variable Wind from WSW
Gusts 5.8 mph

Today
High -- | Low -- °F
--% Chance of Precip.
Yesterday
High -- | Low -- °F
Precip. -- in
Pressure 30.15 in
Visibility 10.0 miles
Clouds Clear
Windchill 24 °F
Dew Point 30 °F
Humidity 100%
Rainfall 0.00 in
Snow Depth Not available.
6:59 AM 4:25 PM
First Quarter, 52% visible
METAR KPRG 071155Z AUTO 26006KT 10SM CLR M02/M04 A3015 RMK AO2 T10201039 11007 21027
Pressure 30.15 in
Visibility 10.0 miles
Clouds Clear
Windchill 24 °F
Dew Point 30 °F
Humidity 100%
Rainfall 0.00 in
Snow Depth Not available.
6:59 AM 4:25 PM
First Quarter, 52% visible
METAR KPRG 071155Z AUTO 26006KT 10SM CLR M02/M04 A3015 RMK AO2 T10201039 11007 21027

10-Day Weather Forecast

Almanac

Astronomy

Dec. 07, 2016 Rise Set
Actual Time
Civil Twilight
Nautical Twilight
Astronomical Twilight
Moon
Length of Visible Light
Length of Day
Tomorrow will be .
, % of the Moon is Illuminated

Today's Extremes

State Highs State Lows

Community

WunderPhotos

Upload Photos

1,956,111 photos uploaded!

WunderBlog® & News

Nearby

Air Quality

  Air Quality AQ Index Pollutant
Not available.

Snow Depth

Station Depth Elevation

Earthquake Activity

City Distance Mag. Time & Date
Minimum magnitude displayed is 2.5.

Coastal Water Temperatures

Place Temperature

Stations

Nearby Weather Stations

Station Location Temp. Windchill Dew Point Humidity Wind Precip. Elev Updated Type
                   

Watches & Warnings

There are currently no watches in effect.